Time;durP1;ratioP1;P1;durP2;ratioP2;P2;SDS_P1;SDS_P2;PMS_P1;PMS_P2;Temp;Humidity;BMP_temperature;BMP_pressure;BME280_temperature;BME280_humidity;BME280_pressure;Samples;Min_cycle;Max_cycle;Signal;HPM_P1;HPM_P2
2023/06/22 00:00:45;;;;;;;20.92;18.42;;;;;;;21.17;74.28;98390.19;5088574;28;20028;-74
2023/06/22 00:03:10;;;;;;;22.75;18.92;;;;;;;20.95;74.79;98385.44;5072352;28;20090;-74
2023/06/22 00:05:36;;;;;;;21.90;17.95;;;;;;;21.16;73.63;98383.09;5055094;28;20033;-74
2023/06/22 00:08:04;;;;;;;21.17;17.55;;;;;;;21.46;73.39;98390.63;5073097;28;20016;-73
2023/06/22 00:10:30;;;;;;;23.80;19.17;;;;;;;20.95;74.67;98387.38;5088241;28;20036;-74
2023/06/22 00:12:55;;;;;;;21.20;18.88;;;;;;;21.18;74.15;98378.13;5059091;28;20422;-75
2023/06/22 00:15:21;;;;;;;21.67;18.65;;;;;;;21.18;73.72;98387.16;5061372;28;20072;-74
2023/06/22 00:17:46;;;;;;;19.38;16.52;;;;;;;21.23;73.48;98387.03;5066163;28;20037;-75
2023/06/22 00:20:12;;;;;;;18.40;16.45;;;;;;;21.33;73.43;98395.00;5062817;28;20123;-75
2023/06/22 00:22:38;;;;;;;22.73;18.20;;;;;;;20.99;74.48;98391.91;5067013;28;20111;-74
2023/06/22 00:25:06;;;;;;;21.42;17.15;;;;;;;21.71;72.13;98402.88;5045441;28;20044;-74
2023/06/22 00:27:32;;;;;;;21.23;17.88;;;;;;;21.43;72.47;98401.38;5071402;28;20104;-74
2023/06/22 00:29:58;;;;;;;20.35;18.08;;;;;;;21.29;72.97;98412.38;5071317;28;20115;-74
2023/06/22 00:32:23;;;;;;;21.55;16.58;;;;;;;21.27;73.11;98417.34;5054309;28;20025;-74
2023/06/22 00:34:50;;;;;;;19.65;17.55;;;;;;;21.47;72.68;98422.38;5053799;28;20497;-74
2023/06/22 00:37:15;;;;;;;20.88;18.00;;;;;;;21.53;71.96;98426.63;5070904;28;20066;-74
2023/06/22 00:39:41;;;;;;;22.42;18.08;;;;;;;21.54;72.16;98425.50;5071051;28;20048;-74
2023/06/22 00:42:06;;;;;;;18.67;15.90;;;;;;;21.62;71.79;98416.53;5070901;28;20086;-74
2023/06/22 00:44:32;;;;;;;24.33;17.17;;;;;;;21.48;72.63;98413.03;5053746;28;20051;-74
2023/06/22 00:46:58;;;;;;;20.90;17.08;;;;;;;21.52;72.97;98421.47;5072178;28;20020;-74
2023/06/22 00:49:23;;;;;;;21.88;17.63;;;;;;;21.39;72.70;98427.78;5072073;28;20456;-74
2023/06/22 00:51:48;;;;;;;25.20;18.80;;;;;;;20.70;75.49;98429.75;5054121;28;20090;-73
2023/06/22 00:54:14;;;;;;;28.65;19.13;;;;;;;20.96;74.25;98436.34;5053283;28;20040;-73
2023/06/22 00:56:40;;;;;;;21.48;18.80;;;;;;;21.38;73.33;98428.91;5053968;28;20104;-73
2023/06/22 00:59:06;;;;;;;22.90;18.63;;;;;;;21.50;72.33;98421.75;5070550;28;20033;-73
2023/06/22 01:01:31;;;;;;;25.35;17.75;;;;;;;21.79;70.95;98411.19;5070604;28;20165;-73
2023/06/22 01:03:58;;;;;;;20.50;17.30;;;;;;;21.84;70.87;98405.59;5071134;28;20079;-72
2023/06/22 01:06:29;;;;;;;24.38;18.30;;;;;;;21.90;70.74;98401.63;5087358;28;20052;-72
2023/06/22 01:09:15;;;;;;;24.70;18.63;;;;;;;21.78;71.00;98393.13;5053841;28;20078;-72
2023/06/22 01:12:00;;;;;;;26.70;17.73;;;;;;;21.76;71.47;98392.63;5087548;28;20052;-73
2023/06/22 01:14:52;;;;;;;23.60;18.27;;;;;;;21.89;71.43;98394.50;5053071;28;20032;-73
2023/06/22 01:17:19;;;;;;;20.20;17.90;;;;;;;21.61;72.53;98397.66;5070255;28;20055;-73
2023/06/22 01:19:46;;;;;;;21.95;18.83;;;;;;;21.59;72.76;98378.78;5104173;28;20078;-73
2023/06/22 01:22:15;;;;;;;21.27;18.08;;;;;;;21.66;72.15;98368.19;5086570;28;20067;-73
2023/06/22 01:25:08;;;;;;;20.70;17.50;;;;;;;21.75;71.89;98351.81;5069389;28;20573;-73
2023/06/22 01:28:15;;;;;;;22.25;17.38;;;;;;;21.70;71.94;98344.53;5052589;28;20094;-73
2023/06/22 01:30:42;;;;;;;20.42;18.05;;;;;;;21.11;74.00;98328.44;5066366;28;20043;-73
2023/06/22 01:33:10;;;;;;;21.35;18.20;;;;;;;21.06;74.80;98320.31;5032851;28;20109;-73
2023/06/22 01:35:37;;;;;;;24.30;19.20;;;;;;;20.84;75.34;98295.63;5090593;28;20046;-73
2023/06/22 01:38:02;;;;;;;21.25;18.25;;;;;;;20.96;75.02;98298.59;5036673;28;20031;-73
2023/06/22 01:40:29;;;;;;;20.08;17.80;;;;;;;21.06;75.04;98298.41;5103854;28;20111;-74
2023/06/22 01:42:55;;;;;;;20.67;18.55;;;;;;;21.12;74.65;98305.41;5069652;28;20032;-74
2023/06/22 01:45:21;;;;;;;18.83;16.65;;;;;;;21.51;73.24;98311.00;5052949;28;20116;-72
2023/06/22 01:47:47;;;;;;;19.65;16.63;;;;;;;21.52;73.24;98312.63;5053145;28;20398;-74
2023/06/22 01:50:12;;;;;;;22.42;17.30;;;;;;;21.57;72.66;98314.41;5069628;28;20024;-74
2023/06/22 01:52:38;;;;;;;18.65;16.67;;;;;;;21.63;72.51;98314.00;5086571;28;20070;-73
2023/06/22 01:55:04;;;;;;;21.98;18.02;;;;;;;21.86;71.58;98312.88;5068971;28;20032;-73
2023/06/22 01:57:30;;;;;;;19.10;16.63;;;;;;;21.98;70.98;98313.06;5053055;28;20098;-73
2023/06/22 02:00:07;;;;;;;19.17;16.63;;;;;;;21.75;72.05;98318.91;5069611;28;20486;-72
2023/06/22 02:02:50;;;;;;;21.10;17.02;;;;;;;21.70;72.54;98314.38;5054253;28;20119;-72
2023/06/22 02:05:17;;;;;;;19.48;17.13;;;;;;;21.79;71.86;98317.97;5069272;28;20033;-73
2023/06/22 02:08:07;;;;;;;26.05;19.23;;;;;;;21.69;71.93;98318.22;5069631;28;20134;-72
2023/06/22 02:10:34;;;;;;;24.55;18.83;;;;;;;21.43;73.03;98335.59;5052768;28;20067;-72
2023/06/22 02:13:01;;;;;;;28.73;17.75;;;;;;;21.97;70.93;98341.66;5052240;28;20055;-72
2023/06/22 02:15:27;;;;;;;27.45;19.75;;;;;;;21.49;72.36;98353.56;5052904;28;20032;-73
2023/06/22 02:17:54;;;;;;;24.13;18.58;;;;;;;21.37;72.53;98353.28;5053277;28;20103;-73
2023/06/22 02:20:21;;;;;;;19.90;17.70;;;;;;;21.25;73.03;98337.41;5040125;28;20041;-73
2023/06/22 02:22:46;;;;;;;19.00;16.80;;;;;;;21.74;71.71;98351.00;5062768;28;20511;-74
2023/06/22 02:25:11;;;;;;;22.10;17.80;;;;;;;21.80;71.28;98341.50;5063277;28;20044;-74
2023/06/22 02:27:40;;;;;;;22.23;18.42;;;;;;;21.95;70.71;98343.91;5063211;28;20064;-74
2023/06/22 02:30:09;;;;;;;19.92;17.42;;;;;;;21.36;73.65;98347.00;5065749;28;20555;-73
2023/06/22 02:32:35;;;;;;;21.52;18.10;;;;;;;20.55;75.39;98358.91;5057348;28;20024;-74
2023/06/22 02:35:03;;;;;;;23.23;19.25;;;;;;;20.37;75.89;98362.56;5072763;28;20033;-72
2023/06/22 02:37:29;;;;;;;23.55;21.02;;;;;;;19.98;77.45;98377.47;5043822;28;20036;-73
2023/06/22 02:39:55;;;;;;;25.65;21.40;;;;;;;19.57;78.88;98392.13;5056786;28;20037;-73
2023/06/22 02:42:21;;;;;;;29.25;22.20;;;;;;;19.52;79.27;98422.25;5056725;28;20024;-72
2023/06/22 02:44:47;;;;;;;24.10;19.63;;;;;;;19.73;79.18;98461.81;5055948;28;20516;-72
2023/06/22 02:47:13;;;;;;;26.88;22.77;;;;;;;19.70;80.53;98511.59;5072606;28;20024;-72
2023/06/22 02:49:39;;;;;;;29.00;23.08;;;;;;;19.16;84.65;98581.13;5056315;28;20452;-72
2023/06/22 02:52:04;;;;;;;34.25;26.90;;;;;;;19.01;86.42;98641.34;5042959;28;20035;-73
2023/06/22 02:54:30;;;;;;;35.80;27.50;;;;;;;19.04;87.17;98651.69;5072305;28;20485;-73
2023/06/22 02:56:55;;;;;;;35.60;27.77;;;;;;;19.70;84.77;98620.91;5056276;28;20020;-73
2023/06/22 02:59:23;;;;;;;33.28;28.92;;;;;;;20.26;82.23;98613.59;5072992;28;20044;-73
2023/06/22 03:01:50;;;;;;;33.10;27.08;;;;;;;20.30;81.86;98624.78;5072691;28;20546;-73
2023/06/22 03:04:23;;;;;;;31.67;25.63;;;;;;;21.18;78.28;98613.72;5076615;28;20040;-72
2023/06/22 03:06:50;;;;;;;28.08;25.10;;;;;;;21.37;77.16;98556.91;5055959;28;20085;-72
2023/06/22 03:09:16;;;;;;;29.98;26.58;;;;;;;20.85;78.73;98499.84;5072655;28;20509;-72
2023/06/22 03:11:42;;;;;;;32.90;26.27;;;;;;;20.83;79.29;98513.00;5056015;28;20041;-73
2023/06/22 03:14:07;;;;;;;30.23;26.92;;;;;;;20.74;80.26;98525.78;5071890;28;20020;-73
2023/06/22 03:16:33;;;;;;;30.33;27.10;;;;;;;20.91;79.33;98523.28;5072059;28;20037;-73
2023/06/22 03:18:59;;;;;;;33.95;28.02;;;;;;;20.98;79.51;98531.91;5039249;28;20020;-73
2023/06/22 03:21:28;;;;;;;32.28;26.60;;;;;;;21.28;78.11;98528.59;5055864;28;20043;-73
2023/06/22 03:23:54;;;;;;;31.92;26.52;;;;;;;21.27;77.91;98514.06;5054979;28;20052;-71
2023/06/22 03:26:19;;;;;;;30.40;26.63;;;;;;;20.92;79.84;98505.72;5072357;28;20442;-72
2023/06/22 03:28:45;;;;;;;30.17;26.98;;;;;;;21.29;78.40;98505.53;5072210;28;20032;-72
2023/06/22 03:31:10;;;;;;;30.67;26.05;;;;;;;20.99;78.53;98496.00;5064620;28;20120;-71
2023/06/22 03:33:38;;;;;;;37.95;26.40;;;;;;;21.01;78.59;98487.47;5048794;28;20024;-72
2023/06/22 03:36:03;;;;;;;31.42;25.17;;;;;;;21.18;77.47;98474.00;5063207;28;20086;-74
2023/06/22 03:38:29;;;;;;;31.88;24.85;;;;;;;21.03;77.83;98449.63;5072089;28;20070;-73
2023/06/22 03:40:56;;;;;;;30.95;24.60;;;;;;;20.92;78.67;98440.00;5047215;28;20028;-73
2023/06/22 03:43:22;;;;;;;30.67;24.92;;;;;;;21.08;78.02;98411.19;5050304;28;20028;-74
2023/06/22 03:45:48;;;;;;;27.42;24.00;;;;;;;21.34;77.22;98399.38;5079656;28;20037;-74
2023/06/22 03:48:13;;;;;;;28.05;23.88;;;;;;;21.44;77.26;98381.09;5048673;28;20035;-74
2023/06/22 03:50:38;;;;;;;24.63;21.38;;;;;;;21.64;76.22;98369.63;5061597;28;20055;-74
2023/06/22 03:53:04;;;;;;;27.40;24.08;;;;;;;21.46;77.16;98352.25;5056435;28;20025;-74
2023/06/22 03:55:30;;;;;;;25.23;21.98;;;;;;;21.75;75.76;98338.09;5060159;28;20398;-73
2023/06/22 03:57:56;;;;;;;25.05;21.60;;;;;;;21.86;75.46;98318.38;5070135;28;20020;-73
2023/06/22 04:00:23;;;;;;;23.13;20.67;;;;;;;22.18;74.74;98310.91;5071793;28;20024;-73
2023/06/22 04:02:48;;;;;;;22.55;19.23;;;;;;;22.40;73.92;98310.84;5054886;28;20553;-73
2023/06/22 04:05:13;;;;;;;21.05;18.58;;;;;;;22.11;73.93;98299.59;5072550;28;20123;-73
2023/06/22 04:07:39;;;;;;;21.35;19.08;;;;;;;22.37;73.48;98295.81;5071844;28;20024;-74
2023/06/22 04:10:05;;;;;;;20.42;18.33;;;;;;;22.56;73.56;98298.28;5055152;28;20067;-73
2023/06/22 04:12:30;;;;;;;20.73;18.52;;;;;;;22.66;72.79;98292.53;5071656;28;20017;-72
2023/06/22 04:14:55;;;;;;;18.67;16.67;;;;;;;22.90;71.14;98290.13;5072287;28;20453;-72
2023/06/22 04:17:21;;;;;;;20.77;18.05;;;;;;;23.10;71.05;98281.25;5071362;28;20028;-73
2023/06/22 04:19:46;;;;;;;18.33;16.52;;;;;;;23.02;71.61;98284.81;5071325;28;20425;-72
2023/06/22 04:22:12;;;;;;;17.83;15.88;;;;;;;23.21;70.30;98282.53;5071288;28;20032;-72
2023/06/22 04:24:37;;;;;;;18.95;16.52;;;;;;;23.28;70.33;98280.13;5071986;28;20048;-74
2023/06/22 04:27:03;;;;;;;18.67;15.90;;;;;;;23.46;69.64;98272.66;5073681;28;20020;-73
2023/06/22 04:29:32;;;;;;;17.63;15.80;;;;;;;23.69;69.59;98276.81;5071974;28;20405;-74
2023/06/22 04:31:58;;;;;;;19.25;17.23;;;;;;;23.13;71.04;98271.53;5074856;28;20025;-73
2023/06/22 04:34:26;;;;;;;19.67;17.58;;;;;;;22.66;72.85;98276.84;5054247;28;20037;-74
2023/06/22 04:36:51;;;;;;;20.50;18.30;;;;;;;22.00;75.68;98272.44;5054655;28;20028;-75
2023/06/22 04:39:18;;;;;;;21.55;19.20;;;;;;;22.03;76.16;98285.50;5054495;28;20071;-76
2023/06/22 04:41:44;;;;;;;23.20;20.52;;;;;;;21.74;77.24;98282.44;5074334;28;20044;-75
2023/06/22 04:44:24;;;;;;;28.60;21.35;;;;;;;21.89;77.10;98293.03;5062423;28;20033;-76
2023/06/22 04:46:59;;;;;;;20.38;18.17;;;;;;;22.15;75.25;98286.88;5066328;28;20028;-73
2023/06/22 04:49:32;;;;;;;20.75;18.65;;;;;;;22.35;74.31;98294.50;5050898;28;20103;-74
2023/06/22 04:51:58;;;;;;;22.38;17.92;;;;;;;23.20;71.39;98286.41;5066571;28;20383;-76
2023/06/22 04:54:23;;;;;;;19.75;17.65;;;;;;;22.77;72.34;98288.34;5066634;28;20044;-74
2023/06/22 04:56:56;;;;;;;18.00;15.93;;;;;;;22.86;71.35;98297.41;5055784;28;20063;-74
2023/06/22 04:59:22;;;;;;;18.52;16.50;;;;;;;23.19;71.33;98284.81;5054922;28;20047;-74
2023/06/22 05:01:47;;;;;;;18.85;16.38;;;;;;;22.94;73.18;98296.59;5080525;28;20487;-74
2023/06/22 05:04:13;;;;;;;19.13;16.88;;;;;;;23.09;70.87;98290.63;5083769;28;20040;-72
2023/06/22 05:06:39;;;;;;;18.77;15.98;;;;;;;23.03;71.30;98291.13;5073987;28;20096;-72
2023/06/22 05:09:05;;;;;;;17.08;15.38;;;;;;;23.43;67.99;98302.78;5071636;28;20516;-72
2023/06/22 05:11:30;;;;;;;17.98;14.68;;;;;;;23.13;67.90;98299.81;5070399;28;20020;-72
2023/06/22 05:13:56;;;;;;;16.08;14.38;;;;;;;23.00;69.59;98286.25;5070940;28;20479;-72
2023/06/22 05:16:23;;;;;;;17.42;15.57;;;;;;;23.81;67.97;98296.22;5071451;28;20029;-72
2023/06/22 05:18:51;;;;;;;15.75;14.15;;;;;;;23.77;67.06;98289.75;5090104;28;20483;-72
2023/06/22 05:21:16;;;;;;;15.30;13.68;;;;;;;23.61;67.79;98282.34;5070237;28;20107;-72
2023/06/22 05:23:41;;;;;;;17.48;14.45;;;;;;;24.17;65.60;98286.72;5070647;28;20115;-72
2023/06/22 05:26:09;;;;;;;15.43;13.80;;;;;;;24.05;67.00;98290.16;5071339;28;20655;-72
2023/06/22 05:28:34;;;;;;;14.43;13.02;;;;;;;24.77;64.62;98291.94;5069854;28;20062;-72
2023/06/22 05:31:00;;;;;;;18.52;13.98;;;;;;;23.78;67.12;98290.56;5070110;28;20018;-72
2023/06/22 05:33:25;;;;;;;15.50;13.90;;;;;;;24.73;65.00;98287.09;5086212;28;20036;-73
2023/06/22 05:35:50;;;;;;;16.55;14.85;;;;;;;25.08;64.79;98295.94;5071041;28;20111;-73
2023/06/22 05:38:16;;;;;;;17.45;15.57;;;;;;;24.24;65.85;98298.03;5053365;28;20044;-75
2023/06/22 05:40:41;;;;;;;19.55;15.18;;;;;;;23.82;68.22;98294.28;5063401;28;20025;-75
2023/06/22 05:43:06;;;;;;;19.00;15.23;;;;;;;24.50;66.79;98312.50;5063844;28;20540;-75
2023/06/22 05:45:32;;;;;;;18.65;14.95;;;;;;;24.06;68.26;98308.31;5057876;28;20055;-75
2023/06/22 05:47:57;;;;;;;18.35;14.90;;;;;;;24.44;66.43;98303.59;5040230;28;20503;-75
2023/06/22 05:50:23;;;;;;;18.80;15.70;;;;;;;24.26;67.76;98296.56;5063302;28;20045;-75
2023/06/22 05:52:48;;;;;;;16.30;14.63;;;;;;;24.58;66.55;98298.66;5062854;28;20379;-75
2023/06/22 05:55:15;;;;;;;16.95;15.23;;;;;;;24.13;67.70;98291.28;5057040;28;20138;-75
2023/06/22 05:57:40;;;;;;;17.40;14.80;;;;;;;24.70;65.92;98298.75;5073494;28;20037;-75
2023/06/22 06:00:10;;;;;;;17.05;14.75;;;;;;;24.25;67.59;98292.19;5046611;28;20391;-76
2023/06/22 06:02:35;;;;;;;15.40;13.90;;;;;;;24.31;66.03;98298.34;5046521;28;20095;-77
2023/06/22 06:05:02;;;;;;;14.63;13.13;;;;;;;25.56;62.92;98314.66;5072777;28;20107;-76
2023/06/22 06:07:28;;;;;;;16.63;14.85;;;;;;;25.65;63.17;98315.38;5073121;28;20120;-76
2023/06/22 06:09:53;;;;;;;17.17;14.27;;;;;;;24.59;66.73;98305.81;5069656;28;20016;-76
2023/06/22 06:12:18;;;;;;;16.02;14.30;;;;;;;25.18;64.61;98311.25;5056336;28;20055;-74
2023/06/22 06:14:44;;;;;;;17.85;13.73;;;;;;;24.67;66.69;98302.16;5062329;28;20021;-75
2023/06/22 06:17:09;;;;;;;15.65;14.13;;;;;;;25.18;63.87;98305.75;5064055;28;20483;-75
2023/06/22 06:19:34;;;;;;;14.65;13.15;;;;;;;25.69;61.32;98310.00;5103200;28;20032;-74
2023/06/22 06:22:00;;;;;;;16.10;13.35;;;;;;;24.68;64.93;98314.81;5070885;28;20032;-75
2023/06/22 06:24:26;;;;;;;13.63;12.30;;;;;;;25.79;58.89;98310.38;5062940;28;20066;-75
2023/06/22 06:26:51;;;;;;;12.90;11.57;;;;;;;25.16;61.77;98310.75;5062387;28;20028;-75
2023/06/22 06:29:16;;;;;;;13.68;12.25;;;;;;;25.23;62.12;98308.28;5057288;28;20482;-75
2023/06/22 06:31:42;;;;;;;15.15;12.25;;;;;;;26.11;58.55;98297.72;5052863;28;20097;-75
2023/06/22 06:34:07;;;;;;;13.23;11.93;;;;;;;26.32;59.25;98289.34;5068979;28;20016;-74
2023/06/22 06:36:33;;;;;;;13.25;11.88;;;;;;;26.76;57.98;98301.44;5071060;28;20033;-72
2023/06/22 06:38:58;;;;;;;13.50;11.07;;;;;;;26.14;57.81;98301.75;5069414;28;20032;-75
2023/06/22 06:41:24;;;;;;;11.40;10.30;;;;;;;26.54;56.09;98291.63;5070715;28;20484;-75
2023/06/22 06:43:49;;;;;;;12.00;10.80;;;;;;;26.82;55.88;98275.97;5038745;28;20038;-75
2023/06/22 06:46:14;;;;;;;12.80;10.70;;;;;;;26.71;56.25;98274.81;5077321;28;20036;-75
2023/06/22 06:48:40;;;;;;;12.55;10.27;;;;;;;26.84;55.63;98272.88;5030533;28;20112;-75
2023/06/22 06:51:08;;;;;;;11.90;10.60;;;;;;;26.83;55.44;98272.06;5061216;28;20041;-75
2023/06/22 06:53:34;;;;;;;14.43;10.82;;;;;;;27.01;55.00;98278.94;5053623;28;20530;-76
2023/06/22 06:55:59;;;;;;;12.40;10.50;;;;;;;26.99;55.07;98272.94;5055677;28;20069;-75
2023/06/22 06:58:25;;;;;;;10.90;9.70;;;;;;;26.67;56.70;98271.13;5064145;28;20469;-75
2023/06/22 07:00:50;;;;;;;15.15;10.23;;;;;;;26.89;55.56;98265.13;5061692;28;20127;-75
2023/06/22 07:03:15;;;;;;;11.25;10.07;;;;;;;27.34;53.79;98262.09;5049837;28;20166;-75
2023/06/22 07:05:41;;;;;;;12.05;10.15;;;;;;;27.20;54.64;98265.28;5061455;28;20090;-76
2023/06/22 07:08:06;;;;;;;12.10;10.10;;;;;;;27.20;54.37;98259.75;5064284;28;20021;-75
2023/06/22 07:10:31;;;;;;;11.30;9.93;;;;;;;27.57;53.45;98251.28;5062579;28;20058;-75
2023/06/22 07:12:57;;;;;;;14.93;10.55;;;;;;;26.82;54.91;98253.84;5056529;28;20378;-75
2023/06/22 07:15:22;;;;;;;10.98;9.77;;;;;;;27.40;52.95;98253.22;5058793;28;20033;-75
2023/06/22 07:17:48;;;;;;;13.63;9.70;;;;;;;27.64;53.29;98263.38;5062669;28;20475;-75
2023/06/22 07:20:13;;;;;;;11.82;9.95;;;;;;;28.03;51.83;98254.16;5063981;28;20509;-75
2023/06/22 07:22:39;;;;;;;11.68;10.02;;;;;;;27.71;52.79;98254.44;5071193;28;20078;-75
2023/06/22 07:25:09;;;;;;;10.82;9.73;;;;;;;27.65;53.84;98253.13;5097418;28;20040;-75
2023/06/22 07:27:42;;;;;;;11.52;9.75;;;;;;;28.25;52.19;98249.94;5072656;28;20020;-75
2023/06/22 07:30:08;;;;;;;11.38;9.32;;;;;;;28.44;51.48;98247.25;5075549;28;20041;-75
2023/06/22 07:32:34;;;;;;;12.30;9.85;;;;;;;28.46;50.63;98244.91;5052688;28;20491;-75
2023/06/22 07:34:59;;;;;;;10.50;9.40;;;;;;;28.58;50.69;98242.03;5066283;28;20072;-75
2023/06/22 07:37:24;;;;;;;12.85;9.80;;;;;;;28.29;52.10;98253.59;5092631;28;20111;-75
2023/06/22 07:39:53;;;;;;;11.18;9.50;;;;;;;27.92;52.53;98255.00;5073618;28;20068;-75
2023/06/22 07:42:19;;;;;;;11.32;10.13;;;;;;;28.21;50.85;98246.31;5072462;28;20025;-75
2023/06/22 07:44:44;;;;;;;11.30;9.88;;;;;;;27.54;51.77;98247.28;5055185;28;20044;-75
2023/06/22 07:47:10;;;;;;;10.82;9.68;;;;;;;28.51;50.53;98236.34;5073572;28;20025;-75
2023/06/22 07:49:35;;;;;;;11.20;9.50;;;;;;;28.65;49.87;98239.47;5089050;28;20032;-75
2023/06/22 07:52:01;;;;;;;11.13;8.95;;;;;;;29.14;49.47;98230.59;5075577;28;20116;-75
2023/06/22 07:54:27;;;;;;;11.90;9.38;;;;;;;29.37;48.29;98239.81;5072780;28;20514;-75
2023/06/22 07:56:52;;;;;;;10.38;9.00;;;;;;;29.43;47.57;98232.78;5054495;28;20025;-75
2023/06/22 07:59:18;;;;;;;10.20;8.38;;;;;;;29.20;48.41;98234.72;5064232;28;20170;-75
2023/06/22 08:01:43;;;;;;;9.93;8.80;;;;;;;28.71;49.98;98239.97;5073170;28;20020;-75
2023/06/22 08:04:09;;;;;;;35.92;11.15;;;;;;;29.25;48.09;98242.75;5072652;28;20491;-75
2023/06/22 08:06:34;;;;;;;12.63;8.55;;;;;;;29.27;47.86;98249.53;5073304;28;20016;-75
2023/06/22 08:08:59;;;;;;;9.30;8.32;;;;;;;29.31;46.93;98242.09;5073092;28;20036;-75
2023/06/22 08:11:25;;;;;;;10.32;8.80;;;;;;;29.06;47.43;98242.72;5105705;28;20077;-75
2023/06/22 08:13:51;;;;;;;8.75;7.93;;;;;;;29.04;47.86;98239.50;5076341;28;20036;-75
2023/06/22 08:16:16;;;;;;;9.35;8.35;;;;;;;29.58;47.77;98234.69;5069892;28;20036;-75
2023/06/22 08:18:42;;;;;;;9.82;7.95;;;;;;;29.61;47.79;98236.75;5105684;28;20079;-75
2023/06/22 08:21:07;;;;;;;9.98;8.18;;;;;;;29.21;46.93;98233.56;5054889;28;20036;-75
2023/06/22 08:23:32;;;;;;;9.63;7.90;;;;;;;29.53;47.09;98221.09;5045588;28;20044;-75
2023/06/22 08:25:58;;;;;;;8.98;7.90;;;;;;;29.54;46.45;98228.28;5057581;28;20043;-76
2023/06/22 08:28:26;;;;;;;10.77;8.15;;;;;;;30.16;46.16;98226.19;5054054;28;20040;-75
2023/06/22 08:30:51;;;;;;;12.15;7.93;;;;;;;30.22;45.80;98208.88;5071351;28;20478;-75
2023/06/22 08:33:17;;;;;;;8.77;7.68;;;;;;;30.28;44.32;98209.34;5034156;28;20057;-75
2023/06/22 08:35:43;;;;;;;9.95;8.73;;;;;;;30.29;44.31;98202.63;5069101;28;20115;-74
2023/06/22 08:38:08;;;;;;;9.75;8.18;;;;;;;30.25;44.95;98204.50;5072640;28;20037;-75
2023/06/22 08:40:34;;;;;;;9.48;8.32;;;;;;;30.20;44.46;98199.28;5099439;28;20032;-72
2023/06/22 08:42:59;;;;;;;11.75;8.40;;;;;;;30.18;44.28;98196.88;5068930;28;20040;-76
2023/06/22 08:45:25;;;;;;;9.88;7.60;;;;;;;30.46;44.31;98207.66;5072802;28;20051;-76
2023/06/22 08:47:50;;;;;;;8.32;7.53;;;;;;;29.93;43.93;98206.78;5071312;28;20044;-76
2023/06/22 08:50:15;;;;;;;9.40;8.43;;;;;;;30.40;44.10;98198.03;5072245;28;20467;-76
2023/06/22 08:52:41;;;;;;;8.63;7.57;;;;;;;30.43;44.93;98197.31;5054411;28;20111;-76
2023/06/22 08:55:07;;;;;;;12.95;8.13;;;;;;;30.67;44.04;98196.84;5070259;28;20051;-75
2023/06/22 08:57:32;;;;;;;12.32;8.32;;;;;;;30.65;43.39;98180.53;5058986;28;20410;-75
2023/06/22 08:59:58;;;;;;;7.78;6.78;;;;;;;30.57;44.38;98186.38;5069493;28;20467;-75
2023/06/22 09:02:31;;;;;;;9.90;7.53;;;;;;;31.34;41.64;98181.81;5104589;28;20032;-75
2023/06/22 09:04:57;;;;;;;9.15;7.45;;;;;;;31.65;42.25;98185.38;5071376;28;20477;-75
2023/06/22 09:07:23;;;;;;;8.85;7.45;;;;;;;31.17;42.54;98182.44;5070893;28;20020;-75
2023/06/22 09:09:49;;;;;;;9.50;7.53;;;;;;;31.05;42.59;98182.69;5071896;28;20032;-75
2023/06/22 09:12:15;;;;;;;12.15;7.15;;;;;;;31.59;41.47;98175.75;5058121;28;20107;-75
2023/06/22 09:14:40;;;;;;;8.98;7.18;;;;;;;31.46;41.50;98177.22;5072411;28;20036;-75
2023/06/22 09:17:05;;;;;;;8.30;7.03;;;;;;;31.43;40.80;98175.97;5070572;28;20409;-75
2023/06/22 09:19:31;;;;;;;8.38;6.75;;;;;;;31.90;39.82;98180.81;5070246;28;20202;-75
2023/06/22 09:21:56;;;;;;;8.85;7.18;;;;;;;31.74;39.88;98177.50;5071652;28;20021;-76
2023/06/22 09:24:22;;;;;;;7.93;6.88;;;;;;;31.80;39.02;98175.94;5049683;28;20033;-75
2023/06/22 09:26:47;;;;;;;8.90;7.57;;;;;;;31.75;39.25;98168.72;5062860;28;20031;-75
2023/06/22 09:29:13;;;;;;;9.15;7.32;;;;;;;31.66;39.97;98164.66;5070143;28;20102;-75
2023/06/22 09:31:38;;;;;;;8.35;6.65;;;;;;;32.15;37.91;98169.88;5060134;28;20029;-76
2023/06/22 09:34:04;;;;;;;9.13;6.70;;;;;;;32.13;37.94;98167.50;5051979;28;20033;-75
2023/06/22 09:36:29;;;;;;;7.13;6.43;;;;;;;32.09;37.43;98155.53;5066680;28;20475;-75
2023/06/22 09:38:55;;;;;;;8.50;6.63;;;;;;;32.33;36.88;98154.06;5053220;28;20095;-75
2023/06/22 09:41:21;;;;;;;10.63;6.90;;;;;;;32.62;37.17;98156.69;5070141;28;20028;-75
2023/06/22 09:43:48;;;;;;;7.05;6.35;;;;;;;32.38;37.61;98151.72;5064836;28;20082;-75
2023/06/22 09:46:15;;;;;;;7.78;6.60;;;;;;;32.72;38.74;98153.13;5050229;28;20154;-75
2023/06/22 09:48:40;;;;;;;6.68;5.95;;;;;;;32.53;37.43;98141.50;5068766;28;20040;-75
2023/06/22 09:51:06;;;;;;;8.57;6.35;;;;;;;32.39;37.91;98141.38;5053208;28;20717;-75
2023/06/22 09:53:31;;;;;;;8.73;7.03;;;;;;;32.52;37.69;98145.47;5068410;28;20135;-75
2023/06/22 09:55:57;;;;;;;7.05;6.32;;;;;;;32.16;37.04;98144.41;5068999;28;20098;-75
2023/06/22 09:58:23;;;;;;;10.32;6.35;;;;;;;32.86;35.71;98137.66;5065006;28;20494;-75
2023/06/22 10:00:48;;;;;;;7.80;6.45;;;;;;;33.08;34.84;98150.53;5068115;28;20032;-75
2023/06/22 10:03:13;;;;;;;8.63;6.20;;;;;;;32.89;35.82;98142.44;5067891;28;20036;-75
2023/06/22 10:05:39;;;;;;;7.03;6.32;;;;;;;33.01;35.42;98139.31;5103867;28;20025;-75
2023/06/22 10:08:04;;;;;;;6.78;6.07;;;;;;;33.37;36.10;98141.81;5071348;28;20033;-75
2023/06/22 10:10:29;;;;;;;7.75;6.15;;;;;;;32.90;36.44;98144.06;5065640;28;20104;-75
2023/06/22 10:12:57;;;;;;;7.43;6.15;;;;;;;33.21;35.97;98143.41;5067517;28;20401;-75
2023/06/22 10:15:22;;;;;;;9.88;6.10;;;;;;;33.28;34.08;98141.41;5068528;28;20106;-75
2023/06/22 10:17:48;;;;;;;8.18;6.00;;;;;;;33.25;34.75;98138.63;5070398;28;20033;-75
2023/06/22 10:20:13;;;;;;;7.93;6.13;;;;;;;33.50;34.04;98128.28;5068194;28;20021;-75
2023/06/22 10:22:40;;;;;;;7.35;6.32;;;;;;;33.25;34.93;98122.69;5068925;28;20048;-75
2023/06/22 10:25:06;;;;;;;7.15;6.25;;;;;;;33.60;34.39;98121.97;5068318;28;20028;-75
2023/06/22 10:27:31;;;;;;;7.07;5.93;;;;;;;33.53;33.84;98130.31;5067763;28;20466;-75
2023/06/22 10:29:57;;;;;;;7.97;6.38;;;;;;;33.36;34.24;98123.50;5070419;28;20107;-75
2023/06/22 10:32:22;;;;;;;7.70;6.05;;;;;;;33.65;33.63;98143.13;5070350;28;20036;-75
2023/06/22 10:34:47;;;;;;;9.27;6.00;;;;;;;33.95;33.50;98138.72;5052042;28;20104;-75
2023/06/22 10:37:13;;;;;;;11.85;6.00;;;;;;;33.88;32.61;98138.72;5052509;28;20028;-75
2023/06/22 10:39:38;;;;;;;6.15;5.55;;;;;;;33.72;32.24;98135.53;5101470;28;20025;-75
2023/06/22 10:42:04;;;;;;;8.52;5.65;;;;;;;33.88;33.14;98135.13;5069450;28;20032;-75
2023/06/22 10:44:29;;;;;;;6.97;5.90;;;;;;;34.06;32.73;98122.78;5069593;28;20115;-75
2023/06/22 10:46:54;;;;;;;7.45;6.45;;;;;;;34.30;32.96;98111.94;5069364;28;20073;-75
2023/06/22 10:49:20;;;;;;;7.28;5.88;;;;;;;34.02;33.49;98099.59;5052157;28;20422;-75
2023/06/22 10:51:45;;;;;;;6.65;5.80;;;;;;;34.28;33.10;98101.19;5051672;28;20032;-75
2023/06/22 10:54:13;;;;;;;7.30;5.40;;;;;;;34.73;30.75;98093.84;5052184;28;20462;-75
2023/06/22 10:56:39;;;;;;;7.15;5.88;;;;;;;33.98;32.43;98089.63;5070304;28;20044;-75
2023/06/22 10:59:05;;;;;;;8.63;6.30;;;;;;;34.23;33.62;98095.19;5071333;28;20020;-75
2023/06/22 11:01:31;;;;;;;6.72;5.88;;;;;;;34.83;32.85;98087.41;5074172;28;20024;-75
2023/06/22 11:03:57;;;;;;;7.10;5.88;;;;;;;34.60;31.70;98101.91;5083146;28;20590;-76
2023/06/22 11:06:22;;;;;;;6.90;6.03;;;;;;;33.55;33.70;98108.38;5071992;28;20035;-76
2023/06/22 11:08:47;;;;;;;9.55;5.93;;;;;;;33.99;32.10;98097.59;5072520;28;20482;-76
2023/06/22 11:11:13;;;;;;;8.50;5.80;;;;;;;34.26;32.31;98092.38;5071232;28;20032;-76
2023/06/22 11:13:38;;;;;;;9.63;6.10;;;;;;;35.00;31.34;98083.72;5071916;28;20036;-76
2023/06/22 11:16:04;;;;;;;8.30;5.80;;;;;;;34.70;32.50;98084.25;5072656;28;20047;-76
2023/06/22 11:18:31;;;;;;;8.85;6.15;;;;;;;35.26;31.59;98086.00;5055818;28;20029;-76